Time;durP1;ratioP1;P1;durP2;ratioP2;P2;SDS_P1;SDS_P2;PMS_P1;PMS_P2;Temp;Humidity;BMP_temperature;BMP_pressure;BME280_temperature;BME280_humidity;BME280_pressure;Samples;Min_cycle;Max_cycle;Signal;HPM_P1;HPM_P2
2023/08/19 00:00:58;;;;;;;3.15;2.85;;;;;;;27.59;46.69;100777.16;5045281;28;20024;-61
2023/08/19 00:03:24;;;;;;;3.33;3.05;;;;;;;27.43;45.81;100771.34;5046788;28;20388;-59
2023/08/19 00:05:51;;;;;;;4.75;3.58;;;;;;;27.18;46.45;100777.56;5048750;28;20128;-62
2023/08/19 00:08:19;;;;;;;3.80;3.25;;;;;;;26.76;47.14;100768.81;5051573;28;20036;-59
2023/08/19 00:10:45;;;;;;;4.05;3.50;;;;;;;26.77;47.85;100778.69;5051297;28;20025;-63
2023/08/19 00:13:12;;;;;;;3.47;3.17;;;;;;;26.64;47.72;100776.84;5051824;28;20078;-62
2023/08/19 00:15:38;;;;;;;4.90;3.30;;;;;;;26.56;48.32;100771.00;5046240;28;20029;-59
2023/08/19 00:18:04;;;;;;;3.78;3.20;;;;;;;26.48;48.14;100769.00;5046930;28;20028;-62
2023/08/19 00:20:32;;;;;;;4.82;3.40;;;;;;;26.29;48.25;100780.16;5062998;28;20122;-61
2023/08/19 00:22:59;;;;;;;5.20;3.72;;;;;;;26.03;49.47;100769.00;5049586;28;20063;-58
2023/08/19 00:25:26;;;;;;;5.75;3.53;;;;;;;26.02;49.51;100767.38;5051112;28;20557;-60
2023/08/19 00:27:53;;;;;;;4.00;3.63;;;;;;;25.94;49.82;100765.41;5048593;28;20032;-61
2023/08/19 00:30:20;;;;;;;4.97;3.45;;;;;;;25.64;50.17;100758.66;5050990;28;20166;-60
2023/08/19 00:32:47;;;;;;;3.85;3.33;;;;;;;25.41;50.82;100757.81;5053935;28;20297;-61
2023/08/19 00:35:14;;;;;;;4.03;3.40;;;;;;;25.13;52.23;100767.19;5048532;28;20045;-63
2023/08/19 00:37:40;;;;;;;3.60;3.30;;;;;;;24.93;52.54;100758.25;5048037;28;20368;-60
2023/08/19 00:40:14;;;;;;;5.43;3.25;;;;;;;24.77;53.37;100756.09;5052035;28;20116;-60
2023/08/19 00:42:40;;;;;;;4.97;4.00;;;;;;;24.41;54.15;100746.59;5051548;28;20039;-61
2023/08/19 00:45:07;;;;;;;9.95;3.90;;;;;;;24.40;54.78;100750.47;5051790;28;20094;-61
2023/08/19 00:47:34;;;;;;;30.60;6.85;;;;;;;24.24;55.27;100743.59;5051692;28;20095;-61
2023/08/19 00:50:01;;;;;;;12.88;4.65;;;;;;;23.95;56.55;100750.09;5057394;28;20458;-60
2023/08/19 00:52:27;;;;;;;12.57;5.68;;;;;;;24.10;56.43;100746.31;5053759;28;20051;-64
2023/08/19 00:54:54;;;;;;;6.93;3.90;;;;;;;24.07;56.74;100748.81;5051216;28;20033;-66
2023/08/19 00:57:21;;;;;;;5.82;3.80;;;;;;;24.10;56.25;100748.25;5049660;28;20483;-67
2023/08/19 00:59:47;;;;;;;7.97;3.85;;;;;;;24.17;56.51;100746.72;5050480;28;20029;-67
2023/08/19 01:02:14;;;;;;;5.60;3.60;;;;;;;24.21;56.04;100742.28;5048393;28;20060;-64
2023/08/19 01:04:40;;;;;;;4.35;3.63;;;;;;;24.20;56.28;100734.38;5048387;28;20087;-58
2023/08/19 01:07:35;;;;;;;6.78;3.78;;;;;;;23.94;56.35;100732.06;5048913;28;20025;-67
2023/08/19 01:10:30;;;;;;;4.38;3.67;;;;;;;23.80;57.41;100736.66;5038701;28;20417;-59
2023/08/19 01:13:05;;;;;;;5.57;4.32;;;;;;;23.45;58.18;100730.59;5046709;28;20526;-58
2023/08/19 01:15:36;;;;;;;5.53;3.75;;;;;;;23.22;58.63;100738.84;5050616;28;20033;-58
2023/08/19 01:18:05;;;;;;;5.03;4.10;;;;;;;22.88;59.79;100737.88;5050161;28;20085;-58
2023/08/19 01:20:32;;;;;;;4.70;4.20;;;;;;;22.97;60.02;100729.84;5050724;28;20105;-58
2023/08/19 01:23:06;;;;;;;6.75;4.32;;;;;;;22.82;60.44;100739.00;5051461;28;20118;-61
2023/08/19 01:25:33;;;;;;;4.57;4.13;;;;;;;22.73;60.59;100735.28;5050613;28;20080;-61
2023/08/19 01:28:03;;;;;;;5.18;4.68;;;;;;;22.55;61.65;100730.56;5051223;28;20033;-59
2023/08/19 01:30:31;;;;;;;4.75;3.70;;;;;;;22.38;62.48;100726.38;5051403;28;20021;-59
2023/08/19 01:32:57;;;;;;;4.47;4.07;;;;;;;22.25;63.25;100721.56;5051389;28;20032;-60
2023/08/19 01:35:25;;;;;;;4.82;4.28;;;;;;;22.01;64.17;100723.41;5047921;28;20029;-56
2023/08/19 01:38:05;;;;;;;5.35;4.30;;;;;;;21.99;64.74;100728.34;5050480;28;20029;-64
2023/08/19 01:40:32;;;;;;;5.45;4.25;;;;;;;22.01;64.93;100724.22;5051844;28;20040;-60
2023/08/19 01:43:00;;;;;;;5.30;4.30;;;;;;;21.90;64.98;100721.84;5053998;28;20040;-58
2023/08/19 01:45:27;;;;;;;5.70;4.47;;;;;;;21.73;65.43;100714.88;5054164;28;20047;-58
2023/08/19 01:47:54;;;;;;;5.43;4.15;;;;;;;21.72;65.88;100713.25;5054012;28;20059;-57
2023/08/19 01:50:20;;;;;;;4.95;4.45;;;;;;;21.71;65.85;100711.66;5052025;28;20463;-60
2023/08/19 01:52:47;;;;;;;3.92;3.50;;;;;;;21.53;67.04;100715.81;5053881;28;20100;-59
2023/08/19 01:55:14;;;;;;;5.15;4.13;;;;;;;21.15;68.63;100713.81;5054912;28;20390;-58
2023/08/19 01:57:40;;;;;;;4.72;4.03;;;;;;;21.27;68.39;100723.31;5058399;28;20032;-58
2023/08/19 02:00:07;;;;;;;6.22;4.53;;;;;;;21.22;68.15;100717.88;5061171;28;20472;-61
2023/08/19 02:02:33;;;;;;;6.10;4.45;;;;;;;20.97;69.09;100726.16;5051962;28;20083;-59
2023/08/19 02:05:00;;;;;;;4.07;3.65;;;;;;;21.03;69.21;100720.41;5050252;28;20040;-58
2023/08/19 02:07:26;;;;;;;4.78;3.70;;;;;;;21.03;69.02;100725.03;5053071;28;20035;-58
2023/08/19 02:09:53;;;;;;;7.72;4.25;;;;;;;20.91;69.34;100732.72;5053770;28;20043;-62
2023/08/19 02:12:19;;;;;;;6.55;4.38;;;;;;;20.77;70.21;100740.66;5045012;28;20033;-64
2023/08/19 02:14:45;;;;;;;5.43;3.90;;;;;;;20.83;70.02;100731.38;5052855;28;20429;-62
2023/08/19 02:17:12;;;;;;;4.60;3.85;;;;;;;20.88;69.98;100739.53;5053472;28;20079;-60
2023/08/19 02:19:38;;;;;;;4.22;3.67;;;;;;;20.85;70.19;100736.53;5052652;28;20021;-59
2023/08/19 02:22:04;;;;;;;4.45;3.95;;;;;;;20.90;70.15;100729.19;5052583;28;20527;-60
2023/08/19 02:24:30;;;;;;;4.28;3.55;;;;;;;20.72;71.02;100736.03;5053472;28;20043;-59
2023/08/19 02:26:57;;;;;;;5.72;3.58;;;;;;;20.69;71.11;100742.00;5053561;28;20410;-59
2023/08/19 02:29:23;;;;;;;5.57;4.00;;;;;;;20.66;71.25;100745.31;5054064;28;20025;-62
2023/08/19 02:31:50;;;;;;;4.97;3.70;;;;;;;20.67;71.36;100744.22;5040234;28;20025;-59
2023/08/19 02:34:16;;;;;;;4.50;3.67;;;;;;;20.69;71.10;100747.47;5034616;28;20022;-60
2023/08/19 02:36:42;;;;;;;3.97;3.25;;;;;;;20.65;71.27;100735.50;5044361;28;20487;-60
2023/08/19 02:39:08;;;;;;;4.30;3.90;;;;;;;20.58;71.62;100742.31;5051449;28;20056;-60
2023/08/19 02:41:35;;;;;;;5.32;3.70;;;;;;;20.66;71.29;100731.69;5053550;28;20045;-60
2023/08/19 02:44:01;;;;;;;3.80;3.40;;;;;;;20.80;70.89;100738.19;5053086;28;20059;-59
2023/08/19 02:46:27;;;;;;;5.05;3.53;;;;;;;20.69;70.68;100731.13;5052976;28;20447;-59
2023/08/19 02:48:54;;;;;;;7.13;3.70;;;;;;;20.55;71.19;100725.47;5053084;28;20068;-59
2023/08/19 02:51:20;;;;;;;4.80;3.63;;;;;;;20.51;71.30;100735.25;5052726;28;20541;-60
2023/08/19 02:53:47;;;;;;;5.63;3.70;;;;;;;20.46;71.69;100735.25;5055547;28;20059;-60
2023/08/19 02:56:13;;;;;;;3.42;3.08;;;;;;;20.41;71.87;100734.44;5059078;28;20029;-59
2023/08/19 02:58:42;;;;;;;4.35;3.65;;;;;;;20.45;71.70;100739.06;5041569;28;20473;-60
2023/08/19 03:01:12;;;;;;;3.67;3.38;;;;;;;20.46;71.05;100729.00;5052523;28;20055;-59
2023/08/19 03:03:38;;;;;;;3.63;3.22;;;;;;;20.31;71.54;100744.22;5053983;28;20109;-60
2023/08/19 03:06:05;;;;;;;5.35;3.85;;;;;;;20.32;71.60;100742.31;5053758;28;20029;-60
2023/08/19 03:08:31;;;;;;;4.32;3.90;;;;;;;20.25;71.48;100750.75;5057047;28;20546;-60
2023/08/19 03:10:57;;;;;;;5.32;4.13;;;;;;;20.28;71.58;100747.50;5059118;28;20471;-60
2023/08/19 03:13:24;;;;;;;4.85;3.70;;;;;;;20.19;71.74;100738.25;5044386;28;20016;-60
2023/08/19 03:15:51;;;;;;;6.88;4.03;;;;;;;20.12;72.16;100743.16;5073614;28;20028;-60
2023/08/19 03:18:18;;;;;;;3.47;3.17;;;;;;;20.13;72.37;100739.34;5072450;28;20029;-60
2023/08/19 03:20:56;;;;;;;3.95;3.53;;;;;;;20.03;73.07;100745.56;5073487;28;20088;-60
2023/08/19 03:23:24;;;;;;;4.65;3.78;;;;;;;19.91;73.28;100749.66;5073845;28;20483;-59
2023/08/19 03:25:51;;;;;;;4.32;3.85;;;;;;;19.89;73.63;100749.13;5073041;28;20097;-59
2023/08/19 03:28:17;;;;;;;4.13;3.72;;;;;;;19.76;73.84;100740.38;5058609;28;20025;-59
2023/08/19 03:30:43;;;;;;;3.92;3.22;;;;;;;19.80;74.13;100743.38;5065514;28;20027;-61
2023/08/19 03:33:10;;;;;;;3.60;3.17;;;;;;;19.69;74.70;100739.84;5042722;28;20116;-60
2023/08/19 03:35:36;;;;;;;3.80;3.42;;;;;;;19.66;74.63;100743.09;5073028;28;20032;-60
2023/08/19 03:38:03;;;;;;;4.40;3.10;;;;;;;19.72;74.69;100747.47;5049704;28;20052;-58
2023/08/19 03:40:29;;;;;;;4.85;3.97;;;;;;;19.71;74.73;100745.00;5036948;28;20025;-59
2023/08/19 03:42:56;;;;;;;4.72;3.45;;;;;;;19.70;75.11;100748.81;5036647;28;20032;-59
2023/08/19 03:45:23;;;;;;;3.53;3.13;;;;;;;19.77;75.10;100754.81;5048480;28;20102;-59
2023/08/19 03:47:49;;;;;;;4.95;4.15;;;;;;;19.72;74.69;100757.50;5047409;28;20356;-60
2023/08/19 03:50:15;;;;;;;4.80;3.75;;;;;;;19.64;75.03;100764.25;5054508;28;20025;-61
2023/08/19 03:52:41;;;;;;;8.75;6.35;;;;;;;19.71;75.23;100770.28;5072962;28;20041;-60
2023/08/19 03:55:08;;;;;;;5.30;3.67;;;;;;;19.77;75.48;100766.47;5054979;28;20158;-60
2023/08/19 03:57:34;;;;;;;5.00;3.60;;;;;;;19.74;75.42;100766.19;5053032;28;20394;-59
2023/08/19 04:00:01;;;;;;;3.70;3.20;;;;;;;19.68;75.67;100765.38;5052915;28;20134;-59
2023/08/19 04:02:27;;;;;;;4.40;3.20;;;;;;;19.67;75.34;100771.06;5051966;28;20474;-57
2023/08/19 04:05:02;;;;;;;3.85;3.20;;;;;;;19.57;75.78;100779.16;5052504;28;20060;-58
2023/08/19 04:07:29;;;;;;;3.65;3.28;;;;;;;19.67;75.20;100774.59;5071600;28;20405;-58
2023/08/19 04:09:56;;;;;;;3.42;3.05;;;;;;;19.65;75.33;100776.75;5061303;28;20021;-58
2023/08/19 04:12:23;;;;;;;4.80;3.15;;;;;;;19.63;75.14;100792.50;5052679;28;20114;-59
2023/08/19 04:14:50;;;;;;;3.95;3.15;;;;;;;19.52;75.55;100796.25;5052343;28;20155;-59
2023/08/19 04:17:16;;;;;;;4.45;3.38;;;;;;;19.56;75.13;100793.81;5052399;28;20032;-59
2023/08/19 04:19:43;;;;;;;3.40;3.10;;;;;;;19.49;75.63;100791.38;5056282;28;20107;-59
2023/08/19 04:22:15;;;;;;;5.53;3.20;;;;;;;19.53;75.71;100784.28;5050471;28;20029;-59
2023/08/19 04:24:42;;;;;;;5.20;3.08;;;;;;;19.53;75.06;100784.28;5050994;28;20103;-59
2023/08/19 04:27:08;;;;;;;3.53;3.20;;;;;;;19.41;75.81;100789.97;5051948;28;20047;-59
2023/08/19 04:29:35;;;;;;;3.50;3.17;;;;;;;19.36;75.63;100791.84;5052169;28;20104;-59
2023/08/19 04:32:02;;;;;;;3.78;2.83;;;;;;;19.29;76.20;100794.00;5052380;28;20518;-59
2023/08/19 04:34:29;;;;;;;3.97;2.67;;;;;;;19.38;75.85;100782.38;5052047;28;20091;-59
2023/08/19 04:36:56;;;;;;;3.47;2.83;;;;;;;19.21;76.18;100790.72;5052192;28;20106;-59
2023/08/19 04:39:22;;;;;;;4.05;2.97;;;;;;;19.24;76.06;100798.31;5052206;28;20021;-59
2023/08/19 04:41:49;;;;;;;3.55;3.22;;;;;;;19.22;75.88;100799.66;5051850;28;20029;-59
2023/08/19 04:44:16;;;;;;;4.60;2.85;;;;;;;19.17;76.36;100800.44;5052154;28;20029;-59
2023/08/19 04:46:43;;;;;;;3.65;2.80;;;;;;;19.15;76.70;100805.31;5051828;28;20059;-59
2023/08/19 04:49:09;;;;;;;5.80;3.35;;;;;;;19.14;77.11;100806.38;5052440;28;20054;-59
2023/08/19 04:51:36;;;;;;;3.83;2.72;;;;;;;19.08;77.22;100803.91;5051813;28;20479;-59
2023/08/19 04:54:03;;;;;;;3.10;2.83;;;;;;;19.03;77.26;100804.72;5050149;28;20025;-59
2023/08/19 04:56:29;;;;;;;3.17;2.80;;;;;;;19.01;77.57;100812.31;5044538;28;20086;-59
2023/08/19 04:59:00;;;;;;;2.85;2.65;;;;;;;18.92;78.09;100805.72;5051840;28;20025;-59
2023/08/19 05:01:27;;;;;;;4.75;3.08;;;;;;;18.88;77.82;100810.88;5050791;28;20044;-59
2023/08/19 05:03:53;;;;;;;3.10;2.65;;;;;;;19.01;78.02;100812.31;5051329;28;20053;-59
2023/08/19 05:06:20;;;;;;;3.38;3.08;;;;;;;18.97;77.85;100812.00;5052229;28;20036;-59
2023/08/19 05:08:46;;;;;;;3.58;3.03;;;;;;;18.96;77.62;100807.66;5051949;28;20067;-59
2023/08/19 05:11:13;;;;;;;3.05;2.78;;;;;;;18.91;77.94;100810.34;5051707;28;20028;-59
2023/08/19 05:13:42;;;;;;;3.90;2.97;;;;;;;18.80;78.74;100814.06;5053441;28;20427;-59
2023/08/19 05:16:09;;;;;;;3.03;2.70;;;;;;;18.75;79.46;100807.78;5046938;28;20022;-59
2023/08/19 05:18:35;;;;;;;4.65;3.05;;;;;;;18.79;79.40;100806.19;5050010;28;20033;-59
2023/08/19 05:21:02;;;;;;;3.28;2.97;;;;;;;18.65;80.36;100800.38;5055432;28;20395;-59
2023/08/19 05:23:28;;;;;;;3.92;3.00;;;;;;;18.65;80.12;100800.38;5055872;28;20048;-59
2023/08/19 05:25:55;;;;;;;3.58;3.20;;;;;;;18.53;80.57;100800.56;5055353;28;20777;-59
2023/08/19 05:28:21;;;;;;;3.95;3.25;;;;;;;18.47;81.34;100804.31;5055980;28;20029;-59
2023/08/19 05:30:47;;;;;;;4.00;3.28;;;;;;;18.53;81.33;100807.88;5055135;28;20021;-59
2023/08/19 05:33:14;;;;;;;3.28;2.97;;;;;;;18.41;81.56;100803.44;5055141;28;20382;-59
2023/08/19 05:35:40;;;;;;;3.25;2.95;;;;;;;18.39;81.62;100807.50;5040779;28;20038;-59
2023/08/19 05:38:06;;;;;;;3.42;3.13;;;;;;;18.29;82.22;100802.00;5035608;28;20487;-59
2023/08/19 05:40:32;;;;;;;4.90;3.42;;;;;;;18.39;81.86;100810.22;5047609;28;20036;-59
2023/08/19 05:42:58;;;;;;;3.53;2.97;;;;;;;18.42;81.80;100802.38;5053828;28;20098;-58
2023/08/19 05:45:25;;;;;;;3.70;3.33;;;;;;;18.55;81.43;100808.44;5053275;28;20445;-59
2023/08/19 05:47:51;;;;;;;4.03;3.58;;;;;;;18.36;82.03;100802.59;5055296;28;20021;-58
2023/08/19 05:50:17;;;;;;;4.47;3.70;;;;;;;18.47;82.08;100798.88;5054245;28;20040;-59
2023/08/19 05:52:43;;;;;;;3.75;3.45;;;;;;;18.44;81.84;100794.00;5053884;28;20506;-58
2023/08/19 05:55:10;;;;;;;3.92;3.58;;;;;;;18.38;81.80;100789.63;5055036;28;20036;-59
2023/08/19 05:57:36;;;;;;;3.60;3.25;;;;;;;18.48;81.55;100787.78;5054271;28;20068;-59
2023/08/19 06:00:03;;;;;;;3.70;3.15;;;;;;;18.53;81.21;100792.41;5055316;28;20029;-59
2023/08/19 06:02:29;;;;;;;5.07;3.80;;;;;;;18.36;81.96;100789.84;5053394;28;20033;-59
2023/08/19 06:04:55;;;;;;;4.65;3.15;;;;;;;18.29;82.45;100788.44;5054947;28;20021;-58
2023/08/19 06:07:25;;;;;;;4.00;3.50;;;;;;;18.38;82.28;100790.44;5053126;28;20029;-58
2023/08/19 06:09:52;;;;;;;4.22;3.47;;;;;;;18.16;82.99;100782.38;5055118;28;20355;-59
2023/08/19 06:12:18;;;;;;;4.68;3.78;;;;;;;18.23;82.58;100789.47;5052720;28;20059;-58
2023/08/19 06:14:44;;;;;;;4.30;3.90;;;;;;;18.06;83.34;100776.88;5054483;28;20079;-58
2023/08/19 06:17:11;;;;;;;4.63;3.78;;;;;;;18.09;83.68;100779.06;5064568;28;20159;-59
2023/08/19 06:19:37;;;;;;;4.07;3.60;;;;;;;18.13;83.95;100773.94;5054377;28;20017;-59
2023/08/19 06:22:03;;;;;;;6.68;4.15;;;;;;;18.13;83.98;100773.94;5053980;28;20112;-59
2023/08/19 06:24:29;;;;;;;4.70;3.90;;;;;;;18.06;84.57;100770.66;5052116;28;20032;-58
2023/08/19 06:26:56;;;;;;;4.70;4.13;;;;;;;18.13;84.01;100772.06;5053907;28;20087;-59
2023/08/19 06:29:22;;;;;;;4.50;4.10;;;;;;;18.09;83.99;100783.66;5053390;28;20031;-59
2023/08/19 06:31:48;;;;;;;5.32;4.18;;;;;;;17.99;83.88;100789.81;5053179;28;20029;-59
2023/08/19 06:34:15;;;;;;;4.50;3.95;;;;;;;18.03;84.00;100777.38;5053047;28;20441;-59
2023/08/19 06:36:46;;;;;;;5.30;3.95;;;;;;;17.93;84.26;100779.97;5053903;28;20028;-59
2023/08/19 06:39:29;;;;;;;5.47;4.05;;;;;;;17.82;85.39;100778.25;5054086;28;20072;-59
2023/08/19 06:42:03;;;;;;;5.95;4.13;;;;;;;17.88;85.29;100769.13;5053670;28;20563;-59
2023/08/19 06:44:31;;;;;;;4.60;4.20;;;;;;;17.90;85.43;100778.63;5053618;28;20029;-58
2023/08/19 06:46:59;;;;;;;4.03;3.65;;;;;;;17.94;85.23;100768.09;5053785;28;20323;-58
2023/08/19 06:49:26;;;;;;;5.22;4.00;;;;;;;17.94;85.00;100768.09;5053870;28;20021;-59
2023/08/19 06:51:53;;;;;;;7.65;4.53;;;;;;;17.98;85.41;100779.22;5052588;28;20091;-58
2023/08/19 06:54:19;;;;;;;4.63;4.22;;;;;;;18.06;85.86;100776.88;5053488;28;20028;-58
2023/08/19 06:57:00;;;;;;;6.07;5.47;;;;;;;17.94;86.26;100784.34;5053755;28;20025;-59
2023/08/19 06:59:47;;;;;;;5.07;4.57;;;;;;;17.79;87.23;100785.00;5053913;28;20444;-59
2023/08/19 07:02:18;;;;;;;4.68;4.20;;;;;;;17.76;87.23;100785.50;5053298;28;20033;-59
2023/08/19 07:04:48;;;;;;;5.97;4.53;;;;;;;17.96;86.76;100782.19;5053199;28;20510;-58
2023/08/19 07:07:21;;;;;;;6.35;4.85;;;;;;;17.87;87.40;100783.72;5051736;28;20029;-59
2023/08/19 07:09:47;;;;;;;4.75;4.25;;;;;;;17.76;87.36;100782.78;5048372;28;20029;-58
2023/08/19 07:12:14;;;;;;;4.70;4.07;;;;;;;17.68;87.69;100781.34;5046044;28;20111;-58
2023/08/19 07:14:41;;;;;;;4.53;4.13;;;;;;;17.63;87.86;100775.88;5053412;28;20443;-58
2023/08/19 07:17:09;;;;;;;5.10;4.60;;;;;;;17.69;87.74;100784.88;5052176;28;20127;-58
2023/08/19 07:19:38;;;;;;;5.00;4.50;;;;;;;17.58;88.19;100783.94;5052139;28;20029;-58
2023/08/19 07:22:05;;;;;;;6.10;4.65;;;;;;;17.64;88.10;100791.03;5033175;28;20036;-59
2023/08/19 07:24:32;;;;;;;5.22;4.72;;;;;;;17.62;88.03;100795.06;5036288;28;20096;-59
2023/08/19 07:27:06;;;;;;;5.38;4.40;;;;;;;17.54;88.40;100796.31;5052973;28;20049;-58
2023/08/19 07:29:35;;;;;;;6.38;4.22;;;;;;;17.61;88.43;100799.69;5053418;28;20544;-58
2023/08/19 07:32:02;;;;;;;4.78;4.03;;;;;;;17.53;88.80;100796.59;5053285;28;20029;-58
2023/08/19 07:34:29;;;;;;;4.50;4.10;;;;;;;17.52;88.74;100801.19;5052863;28;20025;-58
2023/08/19 07:36:55;;;;;;;6.30;4.20;;;;;;;17.68;88.58;100799.47;5051799;28;20159;-58
2023/08/19 07:39:22;;;;;;;4.50;4.10;;;;;;;17.54;88.77;100796.31;5051898;28;20025;-58
2023/08/19 07:41:49;;;;;;;5.40;4.88;;;;;;;17.55;89.06;100795.28;5052643;28;20040;-58
2023/08/19 07:44:15;;;;;;;5.07;4.57;;;;;;;17.55;88.81;100794.47;5052907;28;20592;-59
2023/08/19 07:46:42;;;;;;;4.95;4.20;;;;;;;17.54;88.68;100796.31;5052942;28;20495;-58
2023/08/19 07:49:08;;;;;;;5.00;4.50;;;;;;;17.55;88.95;100803.41;5052656;28;20029;-58
2023/08/19 07:51:34;;;;;;;6.22;4.40;;;;;;;17.55;88.62;100798.00;5052648;28;20036;-58
2023/08/19 07:54:00;;;;;;;4.68;4.15;;;;;;;17.36;89.32;100794.78;5051427;28;20045;-58
2023/08/19 07:56:27;;;;;;;6.20;4.30;;;;;;;17.53;89.28;100791.19;5051580;28;20040;-58
2023/08/19 07:58:53;;;;;;;4.78;4.28;;;;;;;17.53;89.22;100800.09;5052382;28;20108;-58
2023/08/19 08:01:19;;;;;;;5.05;4.00;;;;;;;17.56;89.00;100796.09;5051601;28;20025;-58
2023/08/19 08:03:46;;;;;;;4.65;4.25;;;;;;;17.65;88.75;100792.66;5050248;28;20029;-58
2023/08/19 08:06:12;;;;;;;4.93;4.38;;;;;;;17.59;88.87;100793.69;5052426;28;20120;-58
2023/08/19 08:08:39;;;;;;;4.63;4.18;;;;;;;17.64;88.69;100793.75;5051490;28;20057;-58
2023/08/19 08:11:05;;;;;;;5.53;4.75;;;;;;;17.59;88.64;100796.38;5036268;28;20107;-58
2023/08/19 08:13:32;;;;;;;4.88;4.40;;;;;;;17.63;88.93;100794.81;5038197;28;20029;-59
2023/08/19 08:15:58;;;;;;;6.55;4.40;;;;;;;17.53;89.22;100792.00;5050768;28;20033;-58
2023/08/19 08:18:25;;;;;;;4.97;4.47;;;;;;;17.61;88.86;100791.56;5052183;28;20424;-58
2023/08/19 08:20:51;;;;;;;4.70;4.30;;;;;;;17.44;89.86;100790.81;5051250;28;20021;-59
2023/08/19 08:23:17;;;;;;;5.65;4.85;;;;;;;17.41;89.81;100794.03;5051918;28;20104;-58
2023/08/19 08:25:43;;;;;;;5.30;4.72;;;;;;;17.51;89.48;100802.25;5049028;28;20032;-59
2023/08/19 08:28:10;;;;;;;5.53;4.90;;;;;;;17.43;89.66;100799.97;5051878;28;20057;-58
2023/08/19 08:30:36;;;;;;;5.82;4.70;;;;;;;17.46;89.11;100799.50;5050987;28;20496;-58
2023/08/19 08:33:03;;;;;;;7.63;4.53;;;;;;;17.49;88.87;100796.28;5051839;28;20033;-59
2023/08/19 08:35:29;;;;;;;5.18;4.22;;;;;;;17.43;88.93;100794.56;5049644;28;20021;-58
2023/08/19 08:37:55;;;;;;;4.68;4.20;;;;;;;17.48;88.87;100797.34;5051646;28;20029;-58
2023/08/19 08:40:21;;;;;;;3.83;3.42;;;;;;;17.44;89.41;100793.53;5051030;28;20027;-58
2023/08/19 08:42:49;;;;;;;4.50;4.10;;;;;;;17.44;89.00;100795.41;5051761;28;20103;-58
2023/08/19 08:45:16;;;;;;;4.57;4.00;;;;;;;17.52;88.78;100798.47;5050264;28;20033;-59
2023/08/19 08:47:43;;;;;;;4.55;4.07;;;;;;;17.61;88.66;100791.56;5051067;28;20028;-58
2023/08/19 08:50:09;;;;;;;4.63;4.00;;;;;;;17.55;88.87;100786.34;5050519;28;20033;-58
2023/08/19 08:52:39;;;;;;;6.38;4.70;;;;;;;17.52;89.11;100787.66;5050852;28;20028;-59
2023/08/19 08:55:07;;;;;;;5.00;4.30;;;;;;;17.45;89.33;100780.81;5051043;28;20049;-59
2023/08/19 08:57:33;;;;;;;5.90;4.63;;;;;;;17.52;89.27;100784.13;5051454;28;20083;-58
2023/08/19 08:59:59;;;;;;;4.40;4.00;;;;;;;17.63;88.96;100784.00;5051393;28;20025;-58
2023/08/19 09:02:27;;;;;;;4.30;3.90;;;;;;;17.72;88.13;100781.69;5051620;28;20167;-59
2023/08/19 09:04:54;;;;;;;6.80;3.83;;;;;;;17.72;88.52;100781.69;5050402;28;20029;-58
2023/08/19 09:07:32;;;;;;;4.78;4.25;;;;;;;17.61;88.40;100786.16;5049391;28;20021;-58
2023/08/19 09:10:01;;;;;;;4.20;3.80;;;;;;;17.53;88.26;100788.47;5044230;28;20030;-58
2023/08/19 09:12:31;;;;;;;4.13;3.72;;;;;;;17.68;88.22;100785.94;5031699;28;20060;-58
2023/08/19 09:15:03;;;;;;;4.25;3.83;;;;;;;17.61;88.05;100788.84;5031355;28;20121;-58
2023/08/19 09:17:32;;;;;;;3.90;3.50;;;;;;;17.54;88.00;100781.97;5031531;28;20101;-58
2023/08/19 09:19:58;;;;;;;5.05;3.97;;;;;;;17.45;88.25;100776.22;5031057;28;20113;-59
2023/08/19 09:22:24;;;;;;;4.30;3.90;;;;;;;17.73;87.28;100772.50;5031704;28;20108;-58
2023/08/19 09:24:54;;;;;;;3.88;3.38;;;;;;;17.48;88.43;100766.75;5031247;28;20048;-58
2023/08/19 09:27:31;;;;;;;4.05;3.75;;;;;;;17.42;88.60;100774.00;5029882;28;20048;-58
2023/08/19 09:29:58;;;;;;;4.47;4.07;;;;;;;17.47;88.55;100774.06;5049421;28;20167;-58
2023/08/19 09:32:28;;;;;;;5.82;3.70;;;;;;;17.56;88.45;100777.97;5049595;28;20116;-58
2023/08/19 09:35:02;;;;;;;5.00;4.28;;;;;;;17.40;89.39;100773.44;5051110;28;20183;-58
2023/08/19 09:37:33;;;;;;;4.32;3.92;;;;;;;17.52;89.04;100774.13;5051423;28;20104;-58
2023/08/19 09:39:59;;;;;;;5.60;4.15;;;;;;;17.41;89.78;100785.91;5051105;28;20039;-58
2023/08/19 09:42:28;;;;;;;4.40;3.97;;;;;;;17.36;89.95;100786.66;5050972;28;20118;-58
2023/08/19 09:44:54;;;;;;;4.80;3.88;;;;;;;17.42;89.69;100788.34;5050932;28;20031;-58
2023/08/19 09:47:22;;;;;;;5.53;4.43;;;;;;;17.45;88.87;100776.22;5051011;28;20522;-58
2023/08/19 09:49:57;;;;;;;4.10;3.70;;;;;;;17.54;88.44;100777.38;5049994;28;20186;-58
2023/08/19 09:52:23;;;;;;;4.85;4.25;;;;;;;17.47;89.17;100768.66;5050062;28;20025;-58
2023/08/19 09:54:53;;;;;;;5.50;4.45;;;;;;;17.45;89.48;100768.09;5049897;28;20403;-58
2023/08/19 09:57:34;;;;;;;5.43;4.65;;;;;;;17.52;89.70;100776.84;5051483;28;20104;-59
2023/08/19 10:00:01;;;;;;;5.55;4.38;;;;;;;17.30;90.34;100781.44;5051829;28;20029;-59
2023/08/19 10:02:28;;;;;;;4.88;4.25;;;;;;;17.30;89.83;100776.84;5054948;28;20056;-58
2023/08/19 10:04:56;;;;;;;4.50;4.10;;;;;;;17.25;90.22;100775.97;5053492;28;20041;-58
2023/08/19 10:07:30;;;;;;;5.50;4.40;;;;;;;17.25;89.93;100774.06;5054596;28;20029;-59
2023/08/19 10:10:01;;;;;;;5.05;4.55;;;;;;;17.20;89.61;100773.19;5048767;28;20554;-58
2023/08/19 10:12:28;;;;;;;4.63;3.55;;;;;;;17.21;89.51;100786.47;5054591;28;20029;-58
2023/08/19 10:14:58;;;;;;;4.72;4.20;;;;;;;17.29;89.61;100777.91;5054195;28;20429;-58
2023/08/19 10:17:27;;;;;;;4.20;3.80;;;;;;;17.28;89.19;100779.00;5054638;28;20028;-58
2023/08/19 10:20:05;;;;;;;4.38;3.97;;;;;;;17.28;89.21;100775.47;5054154;28;20037;-58
2023/08/19 10:22:34;;;;;;;4.53;3.90;;;;;;;17.17;89.40;100769.13;5054507;28;20033;-58
2023/08/19 10:25:03;;;;;;;4.18;3.78;;;;;;;17.14;89.96;100765.00;5054071;28;20025;-58
2023/08/19 10:27:29;;;;;;;3.72;3.40;;;;;;;17.13;89.68;100765.28;5052822;28;20048;-58
2023/08/19 10:29:57;;;;;;;3.90;3.50;;;;;;;17.07;90.03;100775.22;5053936;28;20052;-59
2023/08/19 10:32:32;;;;;;;4.95;4.00;;;;;;;17.02;89.98;100772.44;5052827;28;20041;-58
2023/08/19 10:35:11;;;;;;;4.07;3.67;;;;;;;17.19;89.31;100777.78;5054035;28;20028;-59
2023/08/19 10:37:42;;;;;;;4.07;3.50;;;;;;;17.14;89.75;100781.25;5054322;28;20477;-59
2023/08/19 10:40:21;;;;;;;4.65;4.25;;;;;;;17.03;90.04;100776.78;5054056;28;20029;-59
2023/08/19 10:43:00;;;;;;;5.53;4.32;;;;;;;17.03;90.68;100773.25;5054094;28;20032;-58
2023/08/19 10:45:37;;;;;;;4.53;3.83;;;;;;;16.95;90.67;100769.09;5053766;28;20037;-59
2023/08/19 10:48:03;;;;;;;4.00;3.60;;;;;;;16.91;90.50;100781.47;5054253;28;20021;-60
2023/08/19 10:50:36;;;;;;;4.90;4.40;;;;;;;16.84;90.87;100781.66;5053760;28;20048;-60
2023/08/19 10:53:04;;;;;;;4.88;4.22;;;;;;;16.99;90.61;100786.47;5054318;28;20479;-59
2023/08/19 10:55:55;;;;;;;3.28;2.95;;;;;;;17.07;90.21;100796.03;5052473;28;20544;-57
2023/08/19 10:58:22;;;;;;;4.35;3.35;;;;;;;16.93;90.56;100797.44;5053815;28;20021;-60
2023/08/19 11:00:49;;;;;;;3.90;3.22;;;;;;;16.84;91.14;100797.06;5053735;28;20032;-58
2023/08/19 11:03:16;;;;;;;3.70;3.40;;;;;;;16.93;90.22;100794.72;5053653;28;20430;-58
2023/08/19 11:05:50;;;;;;;3.90;2.80;;;;;;;16.95;90.02;100801.53;5053324;28;20025;-58
2023/08/19 11:08:16;;;;;;;3.65;3.35;;;;;;;16.89;90.20;100797.13;5052932;28;20037;-59
2023/08/19 11:10:46;;;;;;;5.25;3.55;;;;;;;16.84;90.44;100797.06;5040456;28;20025;-59
2023/08/19 11:13:16;;;;;;;3.95;3.00;;;;;;;16.94;90.16;100805.31;5033652;28;20018;-62
2023/08/19 11:15:43;;;;;;;3.25;2.92;;;;;;;16.89;90.60;100802.53;5033510;28;20348;-60
2023/08/19 11:18:09;;;;;;;3.22;2.92;;;;;;;16.82;90.36;100810.00;5033571;28;20022;-59
2023/08/19 11:20:36;;;;;;;3.00;2.70;;;;;;;16.73;91.31;100812.31;5033344;28;20087;-60
2023/08/19 11:23:02;;;;;;;3.08;2.67;;;;;;;16.79;90.49;100805.91;5033419;28;20108;-59
2023/08/19 11:25:37;;;;;;;2.75;2.45;;;;;;;16.82;90.84;100807.28;5032765;28;20092;-59
2023/08/19 11:28:06;;;;;;;2.65;2.40;;;;;;;16.85;90.30;100809.50;5033024;28;20076;-59